sensor_id;sensor_type;location;lat;lon;timestamp;P1;durP1;ratioP1;P2;durP2;ratioP2
809;SDS011;387;48.772;9.186;2024-01-07T00:00:59;34.50;;;15.03;;
809;SDS011;387;48.772;9.186;2024-01-07T00:03:25;32.50;;;14.90;;
809;SDS011;387;48.772;9.186;2024-01-07T00:05:51;37.17;;;16.07;;
809;SDS011;387;48.772;9.186;2024-01-07T00:08:16;37.50;;;16.27;;
809;SDS011;387;48.772;9.186;2024-01-07T00:10:42;39.27;;;16.50;;
809;SDS011;387;48.772;9.186;2024-01-07T00:13:08;29.47;;;14.70;;
809;SDS011;387;48.772;9.186;2024-01-07T00:15:33;37.87;;;16.03;;
809;SDS011;387;48.772;9.186;2024-01-07T00:17:59;36.67;;;14.97;;
809;SDS011;387;48.772;9.186;2024-01-07T00:20:24;38.67;;;17.20;;
809;SDS011;387;48.772;9.186;2024-01-07T00:22:50;38.37;;;16.20;;
809;SDS011;387;48.772;9.186;2024-01-07T00:25:15;35.60;;;14.73;;
809;SDS011;387;48.772;9.186;2024-01-07T00:27:43;36.20;;;16.60;;
809;SDS011;387;48.772;9.186;2024-01-07T00:30:09;37.73;;;15.60;;
809;SDS011;387;48.772;9.186;2024-01-07T00:32:35;40.30;;;17.40;;
809;SDS011;387;48.772;9.186;2024-01-07T00:35:00;34.13;;;14.63;;
809;SDS011;387;48.772;9.186;2024-01-07T00:37:26;32.40;;;15.23;;
809;SDS011;387;48.772;9.186;2024-01-07T00:39:51;32.40;;;15.27;;
809;SDS011;387;48.772;9.186;2024-01-07T00:42:17;32.70;;;13.00;;
809;SDS011;387;48.772;9.186;2024-01-07T00:44:42;32.57;;;13.47;;
809;SDS011;387;48.772;9.186;2024-01-07T00:47:08;31.37;;;14.90;;
809;SDS011;387;48.772;9.186;2024-01-07T00:49:34;30.10;;;13.23;;
809;SDS011;387;48.772;9.186;2024-01-07T00:51:59;33.20;;;14.43;;
809;SDS011;387;48.772;9.186;2024-01-07T00:54:25;36.73;;;14.90;;
809;SDS011;387;48.772;9.186;2024-01-07T00:56:50;36.53;;;14.73;;
809;SDS011;387;48.772;9.186;2024-01-07T00:59:16;28.77;;;13.50;;
809;SDS011;387;48.772;9.186;2024-01-07T01:01:41;46.53;;;16.23;;
809;SDS011;387;48.772;9.186;2024-01-07T01:04:07;38.33;;;16.53;;
809;SDS011;387;48.772;9.186;2024-01-07T01:06:32;32.33;;;14.73;;
809;SDS011;387;48.772;9.186;2024-01-07T01:08:58;38.90;;;16.97;;
809;SDS011;387;48.772;9.186;2024-01-07T01:11:24;32.27;;;16.60;;
809;SDS011;387;48.772;9.186;2024-01-07T01:13:49;32.07;;;14.37;;
809;SDS011;387;48.772;9.186;2024-01-07T01:16:15;44.60;;;16.90;;
809;SDS011;387;48.772;9.186;2024-01-07T01:18:40;36.40;;;15.50;;
809;SDS011;387;48.772;9.186;2024-01-07T01:21:06;35.13;;;15.07;;
809;SDS011;387;48.772;9.186;2024-01-07T01:23:32;39.17;;;15.27;;
809;SDS011;387;48.772;9.186;2024-01-07T01:25:58;44.33;;;16.80;;
809;SDS011;387;48.772;9.186;2024-01-07T01:28:24;43.37;;;15.87;;
809;SDS011;387;48.772;9.186;2024-01-07T01:30:49;41.30;;;17.33;;
809;SDS011;387;48.772;9.186;2024-01-07T01:33:15;38.87;;;16.97;;
809;SDS011;387;48.772;9.186;2024-01-07T01:35:40;43.17;;;16.83;;
809;SDS011;387;48.772;9.186;2024-01-07T01:38:06;45.50;;;17.27;;
809;SDS011;387;48.772;9.186;2024-01-07T01:40:32;43.87;;;16.93;;
809;SDS011;387;48.772;9.186;2024-01-07T01:42:57;44.47;;;17.83;;
809;SDS011;387;48.772;9.186;2024-01-07T01:45:23;50.27;;;20.07;;
809;SDS011;387;48.772;9.186;2024-01-07T01:47:48;46.10;;;18.17;;
809;SDS011;387;48.772;9.186;2024-01-07T01:50:14;56.10;;;20.87;;
809;SDS011;387;48.772;9.186;2024-01-07T01:52:42;56.93;;;20.83;;
809;SDS011;387;48.772;9.186;2024-01-07T01:55:09;44.93;;;17.80;;
809;SDS011;387;48.772;9.186;2024-01-07T01:57:35;54.97;;;20.70;;
809;SDS011;387;48.772;9.186;2024-01-07T02:00:03;50.67;;;18.67;;
809;SDS011;387;48.772;9.186;2024-01-07T02:02:33;70.13;;;21.63;;
809;SDS011;387;48.772;9.186;2024-01-07T02:05:02;52.90;;;20.03;;
809;SDS011;387;48.772;9.186;2024-01-07T02:07:28;54.87;;;19.60;;
809;SDS011;387;48.772;9.186;2024-01-07T02:09:55;45.47;;;18.10;;
809;SDS011;387;48.772;9.186;2024-01-07T02:12:21;53.43;;;19.87;;
809;SDS011;387;48.772;9.186;2024-01-07T02:14:47;55.73;;;21.03;;
809;SDS011;387;48.772;9.186;2024-01-07T02:17:13;57.23;;;19.97;;
809;SDS011;387;48.772;9.186;2024-01-07T02:19:39;58.33;;;19.87;;
809;SDS011;387;48.772;9.186;2024-01-07T02:22:05;52.47;;;19.20;;
809;SDS011;387;48.772;9.186;2024-01-07T02:24:30;44.33;;;19.10;;
809;SDS011;387;48.772;9.186;2024-01-07T02:26:57;49.57;;;20.43;;
809;SDS011;387;48.772;9.186;2024-01-07T02:29:23;55.73;;;18.90;;
809;SDS011;387;48.772;9.186;2024-01-07T02:31:48;47.90;;;19.70;;
809;SDS011;387;48.772;9.186;2024-01-07T02:34:14;56.57;;;22.07;;
809;SDS011;387;48.772;9.186;2024-01-07T02:36:40;51.27;;;19.63;;
809;SDS011;387;48.772;9.186;2024-01-07T02:39:05;56.40;;;20.63;;
809;SDS011;387;48.772;9.186;2024-01-07T02:41:31;44.47;;;18.20;;
809;SDS011;387;48.772;9.186;2024-01-07T02:43:56;57.73;;;22.73;;
809;SDS011;387;48.772;9.186;2024-01-07T02:46:23;53.03;;;20.43;;
809;SDS011;387;48.772;9.186;2024-01-07T02:48:49;52.27;;;22.63;;
809;SDS011;387;48.772;9.186;2024-01-07T02:51:14;52.37;;;18.30;;
809;SDS011;387;48.772;9.186;2024-01-07T02:53:40;48.53;;;20.27;;
809;SDS011;387;48.772;9.186;2024-01-07T02:56:05;46.00;;;19.87;;
809;SDS011;387;48.772;9.186;2024-01-07T02:58:33;45.10;;;21.17;;
809;SDS011;387;48.772;9.186;2024-01-07T03:00:59;51.70;;;23.50;;
809;SDS011;387;48.772;9.186;2024-01-07T03:03:25;52.70;;;21.73;;
809;SDS011;387;48.772;9.186;2024-01-07T03:05:51;51.40;;;21.50;;
809;SDS011;387;48.772;9.186;2024-01-07T03:08:16;46.70;;;19.03;;
809;SDS011;387;48.772;9.186;2024-01-07T03:10:43;51.27;;;21.47;;
809;SDS011;387;48.772;9.186;2024-01-07T03:13:08;50.47;;;20.00;;
809;SDS011;387;48.772;9.186;2024-01-07T03:15:34;61.37;;;22.83;;
809;SDS011;387;48.772;9.186;2024-01-07T03:17:59;46.80;;;19.90;;
809;SDS011;387;48.772;9.186;2024-01-07T03:20:25;51.17;;;20.97;;
809;SDS011;387;48.772;9.186;2024-01-07T03:22:51;45.50;;;19.77;;
809;SDS011;387;48.772;9.186;2024-01-07T03:25:16;43.23;;;19.87;;
809;SDS011;387;48.772;9.186;2024-01-07T03:27:42;45.70;;;20.13;;
809;SDS011;387;48.772;9.186;2024-01-07T03:30:07;45.63;;;19.40;;
809;SDS011;387;48.772;9.186;2024-01-07T03:32:34;38.77;;;17.07;;
809;SDS011;387;48.772;9.186;2024-01-07T03:35:00;51.23;;;20.37;;
809;SDS011;387;48.772;9.186;2024-01-07T03:37:26;42.43;;;19.70;;
809;SDS011;387;48.772;9.186;2024-01-07T03:39:52;46.43;;;19.70;;
809;SDS011;387;48.772;9.186;2024-01-07T03:42:17;40.87;;;17.67;;
809;SDS011;387;48.772;9.186;2024-01-07T03:44:44;31.60;;;16.27;;
809;SDS011;387;48.772;9.186;2024-01-07T03:47:10;36.83;;;17.00;;
809;SDS011;387;48.772;9.186;2024-01-07T03:49:38;45.93;;;18.90;;
809;SDS011;387;48.772;9.186;2024-01-07T03:52:05;44.17;;;18.67;;
809;SDS011;387;48.772;9.186;2024-01-07T03:54:31;39.23;;;17.27;;
809;SDS011;387;48.772;9.186;2024-01-07T03:56:57;41.30;;;17.57;;
809;SDS011;387;48.772;9.186;2024-01-07T03:59:23;38.07;;;17.70;;
809;SDS011;387;48.772;9.186;2024-01-07T04:01:50;38.07;;;17.80;;
809;SDS011;387;48.772;9.186;2024-01-07T04:04:19;42.90;;;18.90;;
809;SDS011;387;48.772;9.186;2024-01-07T04:06:44;36.67;;;17.50;;
809;SDS011;387;48.772;9.186;2024-01-07T04:09:10;32.57;;;15.27;;
809;SDS011;387;48.772;9.186;2024-01-07T04:11:42;32.97;;;15.87;;
809;SDS011;387;48.772;9.186;2024-01-07T04:14:08;40.67;;;18.23;;
809;SDS011;387;48.772;9.186;2024-01-07T04:16:34;37.33;;;16.33;;
809;SDS011;387;48.772;9.186;2024-01-07T04:19:00;42.87;;;18.23;;
809;SDS011;387;48.772;9.186;2024-01-07T04:21:25;35.83;;;16.23;;
809;SDS011;387;48.772;9.186;2024-01-07T04:23:51;45.33;;;17.23;;
809;SDS011;387;48.772;9.186;2024-01-07T04:26:16;41.93;;;17.83;;
809;SDS011;387;48.772;9.186;2024-01-07T04:28:42;41.53;;;17.20;;
809;SDS011;387;48.772;9.186;2024-01-07T04:31:08;38.33;;;17.30;;
809;SDS011;387;48.772;9.186;2024-01-07T04:33:34;37.47;;;17.73;;
809;SDS011;387;48.772;9.186;2024-01-07T04:36:00;37.70;;;17.40;;
809;SDS011;387;48.772;9.186;2024-01-07T04:38:26;37.13;;;15.10;;
809;SDS011;387;48.772;9.186;2024-01-07T04:40:52;51.60;;;19.20;;
809;SDS011;387;48.772;9.186;2024-01-07T04:43:18;37.43;;;17.53;;
809;SDS011;387;48.772;9.186;2024-01-07T04:45:44;40.80;;;17.10;;
809;SDS011;387;48.772;9.186;2024-01-07T04:48:10;38.93;;;18.13;;
809;SDS011;387;48.772;9.186;2024-01-07T04:50:36;46.50;;;17.50;;
809;SDS011;387;48.772;9.186;2024-01-07T04:53:02;43.23;;;18.70;;
809;SDS011;387;48.772;9.186;2024-01-07T04:55:28;43.73;;;18.30;;
809;SDS011;387;48.772;9.186;2024-01-07T04:57:54;34.33;;;15.20;;
809;SDS011;387;48.772;9.186;2024-01-07T05:00:20;40.00;;;17.87;;
809;SDS011;387;48.772;9.186;2024-01-07T05:02:46;38.23;;;14.90;;
809;SDS011;387;48.772;9.186;2024-01-07T05:05:11;36.10;;;15.30;;
809;SDS011;387;48.772;9.186;2024-01-07T05:07:37;41.13;;;15.20;;
809;SDS011;387;48.772;9.186;2024-01-07T05:10:03;40.57;;;16.03;;
809;SDS011;387;48.772;9.186;2024-01-07T05:12:29;30.27;;;14.13;;
809;SDS011;387;48.772;9.186;2024-01-07T05:14:55;36.30;;;15.90;;
809;SDS011;387;48.772;9.186;2024-01-07T05:17:20;31.97;;;14.53;;
809;SDS011;387;48.772;9.186;2024-01-07T05:19:46;34.00;;;14.30;;
809;SDS011;387;48.772;9.186;2024-01-07T05:22:12;27.73;;;13.43;;
809;SDS011;387;48.772;9.186;2024-01-07T05:24:37;33.63;;;13.77;;
809;SDS011;387;48.772;9.186;2024-01-07T05:27:06;35.97;;;14.97;;
809;SDS011;387;48.772;9.186;2024-01-07T05:29:32;32.00;;;14.57;;
809;SDS011;387;48.772;9.186;2024-01-07T05:32:00;32.53;;;14.37;;
809;SDS011;387;48.772;9.186;2024-01-07T05:34:27;32.93;;;14.70;;
809;SDS011;387;48.772;9.186;2024-01-07T05:36:53;31.77;;;14.00;;
809;SDS011;387;48.772;9.186;2024-01-07T05:39:19;33.93;;;12.70;;
809;SDS011;387;48.772;9.186;2024-01-07T05:41:45;36.13;;;15.33;;
809;SDS011;387;48.772;9.186;2024-01-07T05:44:11;30.80;;;13.67;;
809;SDS011;387;48.772;9.186;2024-01-07T05:46:40;31.40;;;14.10;;
809;SDS011;387;48.772;9.186;2024-01-07T05:49:06;34.07;;;14.10;;
809;SDS011;387;48.772;9.186;2024-01-07T05:51:32;32.47;;;14.47;;
809;SDS011;387;48.772;9.186;2024-01-07T05:53:58;33.17;;;15.10;;
809;SDS011;387;48.772;9.186;2024-01-07T05:56:24;26.30;;;12.37;;
809;SDS011;387;48.772;9.186;2024-01-07T05:58:49;28.27;;;13.67;;
809;SDS011;387;48.772;9.186;2024-01-07T06:01:19;33.73;;;14.03;;
809;SDS011;387;48.772;9.186;2024-01-07T06:03:45;25.33;;;12.10;;
809;SDS011;387;48.772;9.186;2024-01-07T06:06:13;25.03;;;11.97;;
809;SDS011;387;48.772;9.186;2024-01-07T06:08:39;31.10;;;14.43;;
809;SDS011;387;48.772;9.186;2024-01-07T06:11:06;26.53;;;12.23;;
809;SDS011;387;48.772;9.186;2024-01-07T06:13:32;27.90;;;12.87;;
809;SDS011;387;48.772;9.186;2024-01-07T06:15:57;26.67;;;12.53;;
809;SDS011;387;48.772;9.186;2024-01-07T06:18:23;30.37;;;13.60;;
809;SDS011;387;48.772;9.186;2024-01-07T06:20:48;25.40;;;12.83;;
809;SDS011;387;48.772;9.186;2024-01-07T06:23:14;27.17;;;13.67;;
809;SDS011;387;48.772;9.186;2024-01-07T06:25:39;25.83;;;12.50;;
809;SDS011;387;48.772;9.186;2024-01-07T06:28:05;25.07;;;12.50;;
809;SDS011;387;48.772;9.186;2024-01-07T06:30:32;27.23;;;13.60;;
809;SDS011;387;48.772;9.186;2024-01-07T06:32:58;27.50;;;12.90;;
809;SDS011;387;48.772;9.186;2024-01-07T06:35:24;28.43;;;12.53;;
809;SDS011;387;48.772;9.186;2024-01-07T06:37:50;23.63;;;12.50;;
809;SDS011;387;48.772;9.186;2024-01-07T06:40:16;24.77;;;12.33;;
809;SDS011;387;48.772;9.186;2024-01-07T06:42:41;31.50;;;16.07;;
809;SDS011;387;48.772;9.186;2024-01-07T06:45:08;25.40;;;13.20;;
809;SDS011;387;48.772;9.186;2024-01-07T06:47:34;32.83;;;15.50;;
809;SDS011;387;48.772;9.186;2024-01-07T06:50:00;27.73;;;13.80;;
809;SDS011;387;48.772;9.186;2024-01-07T06:52:25;24.33;;;12.60;;
809;SDS011;387;48.772;9.186;2024-01-07T06:54:51;30.83;;;15.20;;
809;SDS011;387;48.772;9.186;2024-01-07T06:57:16;24.20;;;12.97;;
809;SDS011;387;48.772;9.186;2024-01-07T06:59:42;23.20;;;11.47;;
809;SDS011;387;48.772;9.186;2024-01-07T07:02:07;25.20;;;13.70;;
809;SDS011;387;48.772;9.186;2024-01-07T07:04:33;26.00;;;12.43;;
809;SDS011;387;48.772;9.186;2024-01-07T07:06:59;26.30;;;11.27;;
809;SDS011;387;48.772;9.186;2024-01-07T07:09:25;23.33;;;12.80;;
809;SDS011;387;48.772;9.186;2024-01-07T07:11:50;25.57;;;12.80;;
809;SDS011;387;48.772;9.186;2024-01-07T07:14:16;24.90;;;12.10;;
809;SDS011;387;48.772;9.186;2024-01-07T07:16:42;20.23;;;11.00;;
809;SDS011;387;48.772;9.186;2024-01-07T07:19:07;23.70;;;11.77;;
809;SDS011;387;48.772;9.186;2024-01-07T07:21:33;22.20;;;11.70;;
809;SDS011;387;48.772;9.186;2024-01-07T07:23:58;22.80;;;12.20;;
809;SDS011;387;48.772;9.186;2024-01-07T07:26:24;26.10;;;13.03;;
809;SDS011;387;48.772;9.186;2024-01-07T07:28:49;20.93;;;11.97;;
809;SDS011;387;48.772;9.186;2024-01-07T07:31:15;22.40;;;10.30;;
809;SDS011;387;48.772;9.186;2024-01-07T07:33:40;19.47;;;11.47;;
809;SDS011;387;48.772;9.186;2024-01-07T07:36:06;18.07;;;10.00;;
809;SDS011;387;48.772;9.186;2024-01-07T07:38:32;18.67;;;10.10;;
809;SDS011;387;48.772;9.186;2024-01-07T07:40:59;21.30;;;11.60;;
809;SDS011;387;48.772;9.186;2024-01-07T07:43:25;17.47;;;9.27;;
809;SDS011;387;48.772;9.186;2024-01-07T07:45:51;18.27;;;9.93;;
809;SDS011;387;48.772;9.186;2024-01-07T07:48:17;19.07;;;10.57;;
809;SDS011;387;48.772;9.186;2024-01-07T07:50:43;20.93;;;10.07;;
809;SDS011;387;48.772;9.186;2024-01-07T07:53:09;20.67;;;9.60;;
809;SDS011;387;48.772;9.186;2024-01-07T07:55:34;17.07;;;9.60;;
809;SDS011;387;48.772;9.186;2024-01-07T07:58:00;15.20;;;8.47;;
809;SDS011;387;48.772;9.186;2024-01-07T08:00:25;15.37;;;8.70;;
809;SDS011;387;48.772;9.186;2024-01-07T08:02:51;19.33;;;8.53;;
809;SDS011;387;48.772;9.186;2024-01-07T08:05:17;16.13;;;9.00;;
809;SDS011;387;48.772;9.186;2024-01-07T08:07:42;17.17;;;8.37;;
809;SDS011;387;48.772;9.186;2024-01-07T08:10:08;15.87;;;8.87;;
809;SDS011;387;48.772;9.186;2024-01-07T08:12:34;14.50;;;9.03;;
809;SDS011;387;48.772;9.186;2024-01-07T08:15:00;17.43;;;7.87;;
809;SDS011;387;48.772;9.186;2024-01-07T08:17:25;17.97;;;9.27;;
809;SDS011;387;48.772;9.186;2024-01-07T08:19:51;16.53;;;9.17;;
809;SDS011;387;48.772;9.186;2024-01-07T08:22:18;16.00;;;8.53;;
809;SDS011;387;48.772;9.186;2024-01-07T08:24:43;12.23;;;7.30;;
809;SDS011;387;48.772;9.186;2024-01-07T08:27:09;18.93;;;9.17;;
809;SDS011;387;48.772;9.186;2024-01-07T08:29:35;18.20;;;7.13;;
809;SDS011;387;48.772;9.186;2024-01-07T08:32:00;21.03;;;8.60;;
809;SDS011;387;48.772;9.186;2024-01-07T08:34:26;15.50;;;8.13;;
809;SDS011;387;48.772;9.186;2024-01-07T08:36:52;13.60;;;7.83;;
809;SDS011;387;48.772;9.186;2024-01-07T08:39:19;14.93;;;7.50;;
809;SDS011;387;48.772;9.186;2024-01-07T08:41:44;14.73;;;7.60;;
809;SDS011;387;48.772;9.186;2024-01-07T08:44:10;18.90;;;8.50;;
809;SDS011;387;48.772;9.186;2024-01-07T08:46:36;15.70;;;8.47;;
809;SDS011;387;48.772;9.186;2024-01-07T08:49:02;15.37;;;8.70;;
809;SDS011;387;48.772;9.186;2024-01-07T08:51:29;16.53;;;8.40;;
809;SDS011;387;48.772;9.186;2024-01-07T08:53:55;16.47;;;9.80;;
809;SDS011;387;48.772;9.186;2024-01-07T08:56:22;20.00;;;9.40;;
809;SDS011;387;48.772;9.186;2024-01-07T08:58:48;15.80;;;8.90;;
809;SDS011;387;48.772;9.186;2024-01-07T09:01:14;18.50;;;8.77;;
809;SDS011;387;48.772;9.186;2024-01-07T09:03:39;19.77;;;9.50;;
809;SDS011;387;48.772;9.186;2024-01-07T09:06:06;16.63;;;8.20;;
809;SDS011;387;48.772;9.186;2024-01-07T09:08:32;16.80;;;9.03;;
809;SDS011;387;48.772;9.186;2024-01-07T09:10:59;16.97;;;8.00;;
809;SDS011;387;48.772;9.186;2024-01-07T09:13:25;15.63;;;7.43;;
809;SDS011;387;48.772;9.186;2024-01-07T09:15:51;16.00;;;7.40;;
809;SDS011;387;48.772;9.186;2024-01-07T09:18:16;15.00;;;7.30;;
809;SDS011;387;48.772;9.186;2024-01-07T09:20:42;19.23;;;7.43;;
809;SDS011;387;48.772;9.186;2024-01-07T09:23:08;9.60;;;5.70;;
809;SDS011;387;48.772;9.186;2024-01-07T09:25:33;11.67;;;6.77;;
809;SDS011;387;48.772;9.186;2024-01-07T09:27:59;13.60;;;6.40;;
809;SDS011;387;48.772;9.186;2024-01-07T09:30:25;15.53;;;6.30;;
809;SDS011;387;48.772;9.186;2024-01-07T09:32:51;10.93;;;6.23;;
809;SDS011;387;48.772;9.186;2024-01-07T09:35:16;8.63;;;4.87;;
809;SDS011;387;48.772;9.186;2024-01-07T09:37:42;8.80;;;5.20;;
809;SDS011;387;48.772;9.186;2024-01-07T09:40:08;11.30;;;6.17;;
809;SDS011;387;48.772;9.186;2024-01-07T09:42:34;10.47;;;4.90;;
809;SDS011;387;48.772;9.186;2024-01-07T09:45:02;10.50;;;5.90;;
809;SDS011;387;48.772;9.186;2024-01-07T09:47:31;22.17;;;6.50;;
809;SDS011;387;48.772;9.186;2024-01-07T09:49:57;11.63;;;6.27;;
809;SDS011;387;48.772;9.186;2024-01-07T09:52:22;16.27;;;7.03;;
809;SDS011;387;48.772;9.186;2024-01-07T09:54:51;10.63;;;6.30;;
809;SDS011;387;48.772;9.186;2024-01-07T09:57:19;14.20;;;6.87;;
809;SDS011;387;48.772;9.186;2024-01-07T09:59:44;13.10;;;6.53;;
809;SDS011;387;48.772;9.186;2024-01-07T10:02:11;16.30;;;7.13;;
809;SDS011;387;48.772;9.186;2024-01-07T10:04:37;14.77;;;6.23;;
809;SDS011;387;48.772;9.186;2024-01-07T10:07:04;12.60;;;5.57;;
809;SDS011;387;48.772;9.186;2024-01-07T10:09:30;12.60;;;6.20;;
809;SDS011;387;48.772;9.186;2024-01-07T10:11:58;10.18;;;6.65;;
809;SDS011;387;48.772;9.186;2024-01-07T10:14:24;11.80;;;6.33;;
809;SDS011;387;48.772;9.186;2024-01-07T10:16:51;11.27;;;6.17;;
809;SDS011;387;48.772;9.186;2024-01-07T10:19:21;15.70;;;6.40;;
809;SDS011;387;48.772;9.186;2024-01-07T10:22:00;12.30;;;7.00;;
809;SDS011;387;48.772;9.186;2024-01-07T10:24:26;13.63;;;6.40;;
809;SDS011;387;48.772;9.186;2024-01-07T10:27:04;11.87;;;6.10;;
809;SDS011;387;48.772;9.186;2024-01-07T10:29:30;11.40;;;6.60;;
809;SDS011;387;48.772;9.186;2024-01-07T10:31:59;11.40;;;6.13;;
809;SDS011;387;48.772;9.186;2024-01-07T10:34:29;11.47;;;6.27;;
809;SDS011;387;48.772;9.186;2024-01-07T10:36:56;14.20;;;6.50;;
809;SDS011;387;48.772;9.186;2024-01-07T10:39:27;12.07;;;6.80;;
809;SDS011;387;48.772;9.186;2024-01-07T10:41:54;12.23;;;6.30;;
809;SDS011;387;48.772;9.186;2024-01-07T10:44:26;11.07;;;6.07;;
809;SDS011;387;48.772;9.186;2024-01-07T10:46:54;12.10;;;6.73;;
809;SDS011;387;48.772;9.186;2024-01-07T10:49:23;12.13;;;6.90;;
809;SDS011;387;48.772;9.186;2024-01-07T10:52:06;13.63;;;6.80;;
809;SDS011;387;48.772;9.186;2024-01-07T10:54:33;12.97;;;7.53;;
809;SDS011;387;48.772;9.186;2024-01-07T10:57:11;13.07;;;6.87;;
809;SDS011;387;48.772;9.186;2024-01-07T10:59:44;13.10;;;7.15;;
809;SDS011;387;48.772;9.186;2024-01-07T11:02:10;12.07;;;6.90;;
809;SDS011;387;48.772;9.186;2024-01-07T11:07:31;14.20;;;7.20;;
809;SDS011;387;48.772;9.186;2024-01-07T11:12:56;15.33;;;7.57;;
809;SDS011;387;48.772;9.186;2024-01-07T11:18:18;10.70;;;6.13;;
809;SDS011;387;48.772;9.186;2024-01-07T11:20:45;14.40;;;7.13;;
809;SDS011;387;48.772;9.186;2024-01-07T11:23:28;15.70;;;7.20;;
809;SDS011;387;48.772;9.186;2024-01-07T11:25:56;14.00;;;6.80;;
809;SDS011;387;48.772;9.186;2024-01-07T11:29:05;16.03;;;7.90;;
809;SDS011;387;48.772;9.186;2024-01-07T11:31:13;18.67;;;8.27;;
809;SDS011;387;48.772;9.186;2024-01-07T11:33:44;13.70;;;6.30;;
809;SDS011;387;48.772;9.186;2024-01-07T11:36:12;15.10;;;7.72;;
809;SDS011;387;48.772;9.186;2024-01-07T11:38:41;15.10;;;6.83;;
809;SDS011;387;48.772;9.186;2024-01-07T11:41:07;11.67;;;6.87;;
809;SDS011;387;48.772;9.186;2024-01-07T11:43:35;11.98;;;6.28;;
809;SDS011;387;48.772;9.186;2024-01-07T11:46:01;14.23;;;7.43;;
809;SDS011;387;48.772;9.186;2024-01-07T11:48:27;9.30;;;6.30;;
809;SDS011;387;48.772;9.186;2024-01-07T11:50:52;12.43;;;6.83;;
809;SDS011;387;48.772;9.186;2024-01-07T11:53:18;13.03;;;7.47;;
809;SDS011;387;48.772;9.186;2024-01-07T11:55:45;13.65;;;7.70;;
809;SDS011;387;48.772;9.186;2024-01-07T11:58:11;11.23;;;6.07;;
809;SDS011;387;48.772;9.186;2024-01-07T12:00:37;13.87;;;7.73;;
809;SDS011;387;48.772;9.186;2024-01-07T12:03:03;14.00;;;6.73;;
809;SDS011;387;48.772;9.186;2024-01-07T12:05:29;11.90;;;7.23;;
809;SDS011;387;48.772;9.186;2024-01-07T12:07:56;14.02;;;7.93;;
809;SDS011;387;48.772;9.186;2024-01-07T12:10:24;13.05;;;6.55;;
809;SDS011;387;48.772;9.186;2024-01-07T12:12:50;15.50;;;6.70;;
809;SDS011;387;48.772;9.186;2024-01-07T12:15:17;14.23;;;7.18;;
809;SDS011;387;48.772;9.186;2024-01-07T12:17:47;14.38;;;7.78;;
809;SDS011;387;48.772;9.186;2024-01-07T12:20:21;13.65;;;8.50;;
809;SDS011;387;48.772;9.186;2024-01-07T12:22:46;13.63;;;7.20;;
809;SDS011;387;48.772;9.186;2024-01-07T12:25:12;14.00;;;8.10;;
809;SDS011;387;48.772;9.186;2024-01-07T12:27:40;15.50;;;9.03;;
809;SDS011;387;48.772;9.186;2024-01-07T12:30:06;14.85;;;7.80;;
809;SDS011;387;48.772;9.186;2024-01-07T12:32:33;14.10;;;8.60;;
809;SDS011;387;48.772;9.186;2024-01-07T12:35:00;14.57;;;8.93;;
809;SDS011;387;48.772;9.186;2024-01-07T12:37:26;15.97;;;9.17;;
809;SDS011;387;48.772;9.186;2024-01-07T12:39:53;16.20;;;9.40;;
809;SDS011;387;48.772;9.186;2024-01-07T12:42:19;16.23;;;9.50;;
809;SDS011;387;48.772;9.186;2024-01-07T12:44:47;18.20;;;8.85;;
809;SDS011;387;48.772;9.186;2024-01-07T12:47:14;17.30;;;10.65;;
809;SDS011;387;48.772;9.186;2024-01-07T12:49:41;21.75;;;11.85;;
809;SDS011;387;48.772;9.186;2024-01-07T12:52:07;18.60;;;10.00;;
809;SDS011;387;48.772;9.186;2024-01-07T12:54:34;17.83;;;9.35;;
809;SDS011;387;48.772;9.186;2024-01-07T12:56:59;23.80;;;10.10;;
809;SDS011;387;48.772;9.186;2024-01-07T12:59:25;19.53;;;10.13;;
809;SDS011;387;48.772;9.186;2024-01-07T13:01:51;18.90;;;10.17;;
809;SDS011;387;48.772;9.186;2024-01-07T13:04:17;20.92;;;10.18;;
809;SDS011;387;48.772;9.186;2024-01-07T13:06:44;16.70;;;9.25;;
809;SDS011;387;48.772;9.186;2024-01-07T13:09:10;16.00;;;9.13;;
809;SDS011;387;48.772;9.186;2024-01-07T13:11:36;17.27;;;9.30;;
809;SDS011;387;48.772;9.186;2024-01-07T13:14:02;18.70;;;10.53;;
809;SDS011;387;48.772;9.186;2024-01-07T13:16:27;18.40;;;9.80;;
809;SDS011;387;48.772;9.186;2024-01-07T13:18:53;18.97;;;10.70;;
809;SDS011;387;48.772;9.186;2024-01-07T13:21:20;18.00;;;9.65;;
809;SDS011;387;48.772;9.186;2024-01-07T13:23:46;20.80;;;9.67;;
809;SDS011;387;48.772;9.186;2024-01-07T13:26:12;19.92;;;9.25;;
809;SDS011;387;48.772;9.186;2024-01-07T13:28:38;19.55;;;9.63;;
809;SDS011;387;48.772;9.186;2024-01-07T13:31:04;16.13;;;9.40;;
809;SDS011;387;48.772;9.186;2024-01-07T13:33:31;21.48;;;11.93;;
809;SDS011;387;48.772;9.186;2024-01-07T13:35:58;18.77;;;10.20;;
809;SDS011;387;48.772;9.186;2024-01-07T13:38:23;21.53;;;9.90;;
809;SDS011;387;48.772;9.186;2024-01-07T13:40:49;15.03;;;9.93;;
809;SDS011;387;48.772;9.186;2024-01-07T13:43:15;17.83;;;9.98;;
809;SDS011;387;48.772;9.186;2024-01-07T13:45:41;17.80;;;10.70;;
809;SDS011;387;48.772;9.186;2024-01-07T13:48:06;20.20;;;10.73;;
809;SDS011;387;48.772;9.186;2024-01-07T13:50:32;22.43;;;10.80;;
809;SDS011;387;48.772;9.186;2024-01-07T13:52:58;19.15;;;9.52;;
809;SDS011;387;48.772;9.186;2024-01-07T13:55:24;18.90;;;10.80;;
809;SDS011;387;48.772;9.186;2024-01-07T13:57:50;17.90;;;9.57;;
809;SDS011;387;48.772;9.186;2024-01-07T14:00:15;18.90;;;10.37;;
809;SDS011;387;48.772;9.186;2024-01-07T14:02:43;24.15;;;11.90;;
809;SDS011;387;48.772;9.186;2024-01-07T14:05:14;18.67;;;10.90;;
809;SDS011;387;48.772;9.186;2024-01-07T14:07:39;20.13;;;10.60;;
809;SDS011;387;48.772;9.186;2024-01-07T14:10:06;20.60;;;10.68;;
809;SDS011;387;48.772;9.186;2024-01-07T14:12:33;17.40;;;10.90;;
809;SDS011;387;48.772;9.186;2024-01-07T14:14:59;24.07;;;12.13;;
809;SDS011;387;48.772;9.186;2024-01-07T14:17:25;19.70;;;10.80;;
809;SDS011;387;48.772;9.186;2024-01-07T14:19:51;25.97;;;12.20;;
809;SDS011;387;48.772;9.186;2024-01-07T14:22:18;24.48;;;14.13;;
809;SDS011;387;48.772;9.186;2024-01-07T14:24:45;26.75;;;12.55;;
809;SDS011;387;48.772;9.186;2024-01-07T14:27:11;22.63;;;12.10;;
809;SDS011;387;48.772;9.186;2024-01-07T14:29:37;19.30;;;11.10;;
809;SDS011;387;48.772;9.186;2024-01-07T14:32:03;21.70;;;11.53;;
809;SDS011;387;48.772;9.186;2024-01-07T14:34:30;24.85;;;13.00;;
809;SDS011;387;48.772;9.186;2024-01-07T14:36:56;24.30;;;12.53;;
809;SDS011;387;48.772;9.186;2024-01-07T14:39:21;23.83;;;12.30;;
809;SDS011;387;48.772;9.186;2024-01-07T14:41:47;25.30;;;13.27;;
809;SDS011;387;48.772;9.186;2024-01-07T14:44:13;25.97;;;12.63;;
809;SDS011;387;48.772;9.186;2024-01-07T14:46:38;25.70;;;12.97;;
809;SDS011;387;48.772;9.186;2024-01-07T14:49:04;27.00;;;12.63;;
809;SDS011;387;48.772;9.186;2024-01-07T14:51:32;27.55;;;13.88;;
809;SDS011;387;48.772;9.186;2024-01-07T14:53:57;27.00;;;13.30;;
809;SDS011;387;48.772;9.186;2024-01-07T14:56:23;24.83;;;12.53;;
809;SDS011;387;48.772;9.186;2024-01-07T14:58:48;29.43;;;13.83;;
809;SDS011;387;48.772;9.186;2024-01-07T15:01:15;23.20;;;12.20;;
809;SDS011;387;48.772;9.186;2024-01-07T15:03:41;30.37;;;12.60;;
809;SDS011;387;48.772;9.186;2024-01-07T15:06:07;29.30;;;13.27;;
809;SDS011;387;48.772;9.186;2024-01-07T15:08:34;23.55;;;12.85;;
809;SDS011;387;48.772;9.186;2024-01-07T15:11:01;23.00;;;12.63;;
809;SDS011;387;48.772;9.186;2024-01-07T15:13:26;26.57;;;12.60;;
809;SDS011;387;48.772;9.186;2024-01-07T15:15:52;26.42;;;12.13;;
809;SDS011;387;48.772;9.186;2024-01-07T15:18:18;21.63;;;11.30;;
809;SDS011;387;48.772;9.186;2024-01-07T15:20:43;22.93;;;11.70;;
809;SDS011;387;48.772;9.186;2024-01-07T15:23:09;25.60;;;11.50;;